createdAt,value
2022-12-25T00:00:21.117Z,100883.88
2022-12-25T00:02:49.790Z,100884.69
2022-12-25T00:05:17.873Z,100898.06
2022-12-25T00:07:45.889Z,100882.63
2022-12-25T00:10:15.297Z,100882.22
2022-12-25T00:12:43.506Z,100884.31
2022-12-25T00:15:11.935Z,100877.47
2022-12-25T00:17:39.951Z,100888.06
2022-12-25T00:20:09.370Z,100881.84
2022-12-25T00:22:37.441Z,100884.34
2022-12-25T00:25:06.272Z,100873.09
2022-12-25T00:27:37.922Z,100887.25
2022-12-25T00:30:07.824Z,100880.63
2022-12-25T00:32:36.465Z,100880.22
2022-12-25T00:35:04.633Z,100880.66
2022-12-25T00:37:34.014Z,100881.91
2022-12-25T00:40:01.988Z,100879.41
2022-12-25T00:42:30.014Z,100874.81
2022-12-25T00:45:01.487Z,100877.94
2022-12-25T00:47:30.741Z,100887.56
2022-12-25T00:49:58.729Z,100870.25
2022-12-25T00:52:26.763Z,100854.41
2022-12-25T00:54:54.824Z,100855.66
2022-12-25T00:57:22.814Z,100865.25
2022-12-25T00:59:50.795Z,100859.41
2022-12-25T01:02:26.571Z,100852.53
2022-12-25T01:04:56.923Z,100849.19
2022-12-25T01:07:27.450Z,100846.47
2022-12-25T01:10:12.931Z,100845.00
2022-12-25T01:12:43.215Z,100851.88
2022-12-25T01:15:12.958Z,100851.47
2022-12-25T01:17:42.911Z,100845.16
2022-12-25T01:20:12.347Z,100846.44
2022-12-25T01:22:40.432Z,100847.69
2022-12-25T01:25:10.643Z,100844.78
2022-12-25T01:27:38.820Z,100847.88
2022-12-25T01:30:08.074Z,100846.03
2022-12-25T01:32:36.132Z,100843.50
2022-12-25T01:35:06.210Z,100848.31
2022-12-25T01:37:34.231Z,100835.81
2022-12-25T01:40:02.233Z,100839.97
2022-12-25T01:42:30.295Z,100838.91
2022-12-25T01:45:34.266Z,100847.25
2022-12-25T01:48:06.022Z,100851.03
2022-12-25T01:50:37.259Z,100864.38
2022-12-25T01:53:06.757Z,100851.66
2022-12-25T01:55:37.248Z,100857.28
2022-12-25T01:58:05.651Z,100866.47
2022-12-25T02:00:33.727Z,100869.38
2022-12-25T02:03:01.910Z,100867.28
2022-12-25T02:05:32.683Z,100855.00
2022-12-25T02:08:07.431Z,100851.22
2022-12-25T02:10:35.462Z,100851.06
2022-12-25T02:13:04.101Z,100848.56
2022-12-25T02:15:41.395Z,100846.28
2022-12-25T02:18:16.418Z,100846.72
2022-12-25T02:21:30.918Z,100844.59
2022-12-25T02:24:32.040Z,100858.16
2022-12-25T02:27:08.308Z,100854.84
2022-12-25T02:29:46.918Z,100861.91
2022-12-25T02:32:21.551Z,100879.84
2022-12-25T02:34:54.357Z,100875.69
2022-12-25T02:37:28.685Z,100877.16
2022-12-25T02:40:06.200Z,100865.69
2022-12-25T02:43:08.303Z,100862.75
2022-12-25T02:46:01.020Z,100858.59
2022-12-25T02:48:50.779Z,100863.81
2022-12-25T02:51:38.289Z,100868.34
2022-12-25T02:54:29.265Z,100869.41
2022-12-25T02:57:17.838Z,100859.41
2022-12-25T03:00:09.373Z,100854.41
2022-12-25T03:03:01.119Z,100861.47
2022-12-25T03:05:48.355Z,100856.50
2022-12-25T03:08:22.313Z,100849.38
2022-12-25T03:11:15.952Z,100845.84
2022-12-25T03:13:47.665Z,100857.13
2022-12-25T03:16:35.764Z,100854.38
2022-12-25T03:19:26.041Z,100844.34
2022-12-25T03:22:13.693Z,100841.47
2022-12-25T03:25:00.032Z,100849.78
2022-12-25T03:27:31.887Z,100844.34
2022-12-25T03:30:17.211Z,100842.94
2022-12-25T03:32:50.811Z,100831.41
2022-12-25T03:35:26.068Z,100827.47
2022-12-25T03:38:42.636Z,100828.50
2022-12-25T03:41:38.171Z,100817.22
2022-12-25T03:44:30.315Z,100800.59
2022-12-25T03:47:19.318Z,100803.31
2022-12-25T03:50:10.239Z,100802.69
2022-12-25T03:52:58.390Z,100807.66
2022-12-25T03:55:44.856Z,100813.28
2022-12-25T03:58:36.566Z,100831.25
2022-12-25T04:01:22.574Z,100828.75
2022-12-25T04:04:11.337Z,100829.78
2022-12-25T04:06:57.308Z,100815.19
2022-12-25T04:09:44.135Z,100812.47
2022-12-25T04:12:29.639Z,100813.09
2022-12-25T04:15:15.110Z,100800.59
2022-12-25T04:18:00.612Z,100801.03
2022-12-25T04:20:45.892Z,100795.63
2022-12-25T04:23:31.411Z,100793.75
2022-12-25T04:26:20.340Z,100802.25
2022-12-25T04:29:05.863Z,100795.00
2022-12-25T04:31:51.444Z,100783.47
2022-12-25T04:34:36.776Z,100785.38
2022-12-25T04:37:04.876Z,100791.22
2022-12-25T04:39:32.910Z,100790.78
2022-12-25T04:42:03.289Z,100792.28
2022-12-25T04:44:31.326Z,100786.63
2022-12-25T04:46:59.257Z,100787.06
2022-12-25T04:49:27.865Z,100782.84
2022-12-25T04:51:55.950Z,100782.22
2022-12-25T04:54:24.399Z,100784.09
2022-12-25T04:56:52.342Z,100785.97
2022-12-25T04:59:21.877Z,100793.88
2022-12-25T05:01:51.184Z,100792.22
2022-12-25T05:04:19.228Z,100792.66
2022-12-25T05:06:47.227Z,100777.84
2022-12-25T05:09:15.290Z,100777.22
2022-12-25T05:11:43.458Z,100782.84
2022-12-25T05:14:11.432Z,100773.00
2022-12-25T05:16:40.900Z,100770.53
2022-12-25T05:19:08.961Z,100780.50
2022-12-25T05:21:37.165Z,100775.69
2022-12-25T05:24:05.580Z,100770.03
2022-12-25T05:26:33.629Z,100776.72
2022-12-25T05:29:01.751Z,100793.81
2022-12-25T05:31:29.812Z,100791.34
2022-12-25T05:33:59.184Z,100786.31
2022-12-25T05:36:27.240Z,100786.31
2022-12-25T05:38:55.396Z,100794.88
2022-12-25T05:41:23.360Z,100782.78
2022-12-25T05:43:51.616Z,100781.13
2022-12-25T05:46:19.719Z,100778.81
2022-12-25T05:48:47.709Z,100778.38
2022-12-25T05:51:17.120Z,100771.06
2022-12-25T05:53:45.985Z,100770.28
2022-12-25T05:56:14.028Z,100773.75
2022-12-25T05:58:42.677Z,100763.78
2022-12-25T06:01:15.806Z,100754.22
2022-12-25T06:03:43.931Z,100758.81
2022-12-25T06:06:12.428Z,100741.28
2022-12-25T06:08:42.422Z,100741.25
2022-12-25T06:11:12.135Z,100745.88
2022-12-25T06:13:40.194Z,100746.91
2022-12-25T06:16:09.832Z,100741.03
2022-12-25T06:18:38.129Z,100747.97
2022-12-25T06:21:08.534Z,100731.47
2022-12-25T06:23:37.340Z,100732.91
2022-12-25T06:26:08.525Z,100729.78
2022-12-25T06:28:36.869Z,100738.75
2022-12-25T06:31:07.663Z,100743.53
2022-12-25T06:33:36.029Z,100728.72
2022-12-25T06:36:08.903Z,100728.09
2022-12-25T06:38:36.927Z,100732.47
2022-12-25T06:41:08.339Z,100736.66
2022-12-25T06:43:36.356Z,100726.63
2022-12-25T06:46:05.277Z,100721.78
2022-12-25T06:48:33.974Z,100728.72
2022-12-25T06:51:03.096Z,100707.41
2022-12-25T06:53:38.814Z,100708.84
2022-12-25T06:56:15.340Z,100709.53
2022-12-25T06:58:44.430Z,100719.47
2022-12-25T07:01:18.180Z,100714.88
2022-12-25T07:03:48.058Z,100705.09
2022-12-25T07:06:16.210Z,100701.16
2022-12-25T07:08:44.314Z,100713.38
2022-12-25T07:11:13.858Z,100706.09
2022-12-25T07:13:41.974Z,100706.69
2022-12-25T07:16:11.882Z,100716.31
2022-12-25T07:18:40.723Z,100712.00
2022-12-25T07:21:10.421Z,100718.56
2022-12-25T07:23:38.659Z,100708.56
2022-12-25T07:26:07.247Z,100709.63
2022-12-25T07:28:36.806Z,100706.75
2022-12-25T07:31:07.140Z,100708.84
2022-12-25T07:33:35.481Z,100712.78
2022-12-25T07:36:05.527Z,100719.06
2022-12-25T07:38:33.596Z,100723.03
2022-12-25T07:41:01.924Z,100722.84
2022-12-25T07:43:30.099Z,100738.03
2022-12-25T07:46:00.995Z,100739.47
2022-12-25T07:48:29.409Z,100733.66
2022-12-25T07:50:59.411Z,100732.81
2022-12-25T07:53:27.534Z,100725.28
2022-12-25T07:56:00.299Z,100723.22
2022-12-25T07:58:29.104Z,100719.50
2022-12-25T08:01:02.543Z,100722.81
2022-12-25T08:03:32.376Z,100715.53
2022-12-25T08:06:04.246Z,100709.00
2022-12-25T08:08:32.437Z,100716.16
2022-12-25T08:11:00.915Z,100714.25
2022-12-25T08:13:31.893Z,100705.69
2022-12-25T08:16:00.362Z,100694.00
2022-12-25T08:18:30.953Z,100695.00
2022-12-25T08:21:03.868Z,100699.22
2022-12-25T08:23:32.324Z,100695.44
2022-12-25T08:26:05.215Z,100689.19
2022-12-25T08:28:35.388Z,100679.56
2022-12-25T08:31:08.661Z,100667.84
2022-12-25T08:33:38.475Z,100657.63
2022-12-25T08:36:09.033Z,100647.41
2022-12-25T08:38:37.511Z,100644.00
2022-12-25T08:41:05.884Z,100640.09
2022-12-25T08:43:33.877Z,100651.72
2022-12-25T08:46:01.889Z,100664.13
2022-12-25T08:48:30.033Z,100663.84
2022-12-25T08:51:00.063Z,100663.50
2022-12-25T08:53:28.193Z,100674.75
2022-12-25T08:56:04.414Z,100675.00
2022-12-25T08:58:32.648Z,100691.47
2022-12-25T09:01:01.306Z,100697.28
2022-12-25T09:03:32.171Z,100703.59
2022-12-25T09:06:06.200Z,100704.81
2022-12-25T09:08:34.593Z,100713.56
2022-12-25T09:11:03.905Z,100707.53
2022-12-25T09:13:32.147Z,100703.16
2022-12-25T09:16:00.831Z,100711.28
2022-12-25T09:18:28.983Z,100712.28
2022-12-25T09:21:00.722Z,100713.13
2022-12-25T09:23:30.631Z,100708.53
2022-12-25T09:25:59.741Z,100711.25
2022-12-25T09:28:27.886Z,100726.25
2022-12-25T09:30:56.315Z,100729.41
2022-12-25T09:33:24.438Z,100740.66
2022-12-25T09:35:56.155Z,100729.56
2022-12-25T09:38:24.469Z,100736.50
2022-12-25T09:41:02.604Z,100732.94
2022-12-25T09:43:34.647Z,100727.50
2022-12-25T09:46:05.277Z,100729.31
2022-12-25T09:48:37.031Z,100731.66
2022-12-25T09:51:09.602Z,100736.25
2022-12-25T09:53:40.661Z,100735.38
2022-12-25T09:56:12.563Z,100741.41
2022-12-25T09:58:40.749Z,100744.13
2022-12-25T10:01:22.598Z,100758.31
2022-12-25T10:04:13.153Z,100760.78
2022-12-25T10:06:54.771Z,100753.34
2022-12-25T10:09:35.339Z,100758.31
2022-12-25T10:12:23.943Z,100762.69
2022-12-25T10:15:08.132Z,100759.31
2022-12-25T10:17:47.899Z,100758.50
2022-12-25T10:20:22.569Z,100768.09
2022-12-25T10:22:54.373Z,100764.75
2022-12-25T10:25:24.452Z,100765.56
2022-12-25T10:27:58.615Z,100765.13
2022-12-25T10:30:29.010Z,100754.28
2022-12-25T10:32:58.807Z,100757.59
2022-12-25T10:35:29.731Z,100756.38
2022-12-25T10:38:01.646Z,100753.81
2022-12-25T10:40:35.723Z,100758.44
2022-12-25T10:43:12.770Z,100755.06
2022-12-25T10:45:45.247Z,100751.72
2022-12-25T10:48:21.755Z,100753.19
2022-12-25T10:50:50.211Z,100748.19
2022-12-25T10:53:21.972Z,100744.66
2022-12-25T10:56:01.578Z,100737.53
2022-12-25T10:58:32.046Z,100740.22
2022-12-25T11:01:02.166Z,100743.38
2022-12-25T11:03:32.736Z,100732.94
2022-12-25T11:06:02.885Z,100737.09
2022-12-25T11:08:34.671Z,100734.16
2022-12-25T11:11:06.284Z,100734.53
2022-12-25T11:13:40.318Z,100726.56
2022-12-25T11:16:11.311Z,100731.78
2022-12-25T11:18:46.037Z,100720.63
2022-12-25T11:21:19.260Z,100719.84
2022-12-25T11:23:49.430Z,100723.56
2022-12-25T11:26:18.866Z,100725.63
2022-12-25T11:28:51.603Z,100722.44
2022-12-25T11:31:22.115Z,100716.84
2022-12-25T11:33:55.665Z,100701.31
2022-12-25T11:36:30.973Z,100709.22
2022-12-25T11:39:06.771Z,100708.19
2022-12-25T11:41:35.978Z,100719.88
2022-12-25T11:44:20.046Z,100719.66
2022-12-25T11:46:52.222Z,100698.69
2022-12-25T11:49:22.475Z,100699.50
2022-12-25T11:51:56.054Z,100698.84
2022-12-25T11:54:28.810Z,100688.13
2022-12-25T11:57:01.383Z,100690.16
2022-12-25T11:59:38.594Z,100688.44
2022-12-25T12:02:23.896Z,100686.59
2022-12-25T12:05:03.359Z,100674.22
2022-12-25T12:07:35.876Z,100668.91
2022-12-25T12:10:13.792Z,100669.06
2022-12-25T12:12:52.303Z,100670.72
2022-12-25T12:15:30.645Z,100665.59
2022-12-25T12:18:09.577Z,100664.06
2022-12-25T12:20:38.290Z,100668.47
2022-12-25T12:23:15.735Z,100657.59
2022-12-25T12:25:45.789Z,100663.94
2022-12-25T12:28:21.635Z,100657.50
2022-12-25T12:31:01.268Z,100651.69
2022-12-25T12:33:36.168Z,100657.59
2022-12-25T12:36:06.565Z,100651.09
2022-12-25T12:38:36.236Z,100658.03
2022-12-25T12:41:07.132Z,100655.72
2022-12-25T12:43:39.799Z,100654.88
2022-12-25T12:46:17.949Z,100655.78
2022-12-25T12:48:47.997Z,100654.75
2022-12-25T12:51:31.580Z,100666.06
2022-12-25T12:54:18.213Z,100662.38
2022-12-25T12:56:56.771Z,100671.56
2022-12-25T12:59:25.589Z,100667.88
2022-12-25T13:02:07.153Z,100663.66
2022-12-25T13:04:55.721Z,100663.78
2022-12-25T13:07:43.978Z,100669.53
2022-12-25T13:10:24.649Z,100663.72
2022-12-25T13:12:55.963Z,100663.53
2022-12-25T13:15:28.264Z,100666.00
2022-12-25T13:18:04.840Z,100652.88
2022-12-25T13:20:41.864Z,100655.44
2022-12-25T13:23:24.753Z,100643.88
2022-12-25T13:25:54.661Z,100648.03
2022-12-25T13:28:27.809Z,100632.41
2022-12-25T13:31:03.255Z,100640.84
2022-12-25T13:33:32.921Z,100641.16
2022-12-25T13:36:01.040Z,100642.59
2022-12-25T13:38:30.175Z,100657.00
2022-12-25T13:41:17.148Z,100646.75
2022-12-25T13:43:46.051Z,100642.97
2022-12-25T13:46:15.368Z,100648.50
2022-12-25T13:48:44.867Z,100652.03
2022-12-25T13:51:17.098Z,100650.38
2022-12-25T13:53:45.333Z,100651.56
2022-12-25T13:56:16.921Z,100651.81
2022-12-25T13:58:48.584Z,100648.34
2022-12-25T14:01:18.637Z,100656.88
2022-12-25T14:03:49.075Z,100654.00
2022-12-25T14:06:22.468Z,100652.50
2022-12-25T14:08:52.280Z,100658.84
2022-12-25T14:11:24.001Z,100657.16
2022-12-25T14:13:55.250Z,100636.25
2022-12-25T14:16:24.260Z,100640.13
2022-12-25T14:18:55.819Z,100634.72
2022-12-25T14:21:31.039Z,100648.03
2022-12-25T14:23:59.503Z,100642.59
2022-12-25T14:26:30.678Z,100630.09
2022-12-25T14:29:12.626Z,100626.88
2022-12-25T14:31:46.489Z,100631.44
2022-12-25T14:34:19.931Z,100624.56
2022-12-25T14:36:49.129Z,100630.16
2022-12-25T14:39:39.355Z,100628.81
2022-12-25T14:42:19.749Z,100626.91
2022-12-25T14:44:59.117Z,100625.50
2022-12-25T14:47:27.948Z,100626.56
2022-12-25T14:49:58.216Z,100617.78
2022-12-25T14:52:29.285Z,100610.25
2022-12-25T14:55:00.817Z,100608.13
2022-12-25T14:57:32.238Z,100617.19
2022-12-25T15:00:03.684Z,100613.03
2022-12-25T15:02:45.998Z,100617.66
2022-12-25T15:05:35.902Z,100615.59
2022-12-25T15:08:25.830Z,100613.72
2022-12-25T15:11:01.782Z,100616.97
2022-12-25T15:13:32.414Z,100617.19
2022-12-25T15:16:04.960Z,100614.00
2022-12-25T15:18:37.991Z,100615.53
2022-12-25T15:21:11.849Z,100617.03
2022-12-25T15:23:39.887Z,100618.63
2022-12-25T15:26:07.884Z,100617.88
2022-12-25T15:28:35.931Z,100620.97
2022-12-25T15:31:04.412Z,100619.38
2022-12-25T15:33:33.260Z,100616.88
2022-12-25T15:36:01.253Z,100631.75
2022-12-25T15:38:36.504Z,100623.22
2022-12-25T15:41:04.740Z,100627.63
2022-12-25T15:43:41.049Z,100631.97
2022-12-25T15:46:10.609Z,100629.75
2022-12-25T15:48:39.746Z,100627.44
2022-12-25T15:51:07.741Z,100642.75
2022-12-25T15:53:37.083Z,100636.47
2022-12-25T15:56:05.457Z,100628.13
2022-12-25T15:58:33.439Z,100632.56
2022-12-25T16:01:01.556Z,100634.44
2022-12-25T16:03:32.614Z,100633.84
2022-12-25T16:06:00.794Z,100626.59
2022-12-25T16:08:28.925Z,100623.28
2022-12-25T16:10:58.338Z,100623.09
2022-12-25T16:13:26.331Z,100636.91
2022-12-25T16:15:56.411Z,100636.25
2022-12-25T16:18:24.650Z,100642.09
2022-12-25T16:20:55.963Z,100645.88
2022-12-25T16:23:24.038Z,100642.59
2022-12-25T16:25:55.188Z,100647.84
2022-12-25T16:28:24.656Z,100647.59
2022-12-25T16:30:52.698Z,100641.34
2022-12-25T16:33:20.844Z,100641.34
2022-12-25T16:35:49.642Z,100644.72
2022-12-25T16:38:17.660Z,100654.59
2022-12-25T16:40:46.334Z,100653.56
2022-12-25T16:43:17.558Z,100638.75
2022-12-25T16:45:51.425Z,100644.00
2022-12-25T16:48:19.489Z,100645.50
2022-12-25T16:50:47.883Z,100646.28
2022-12-25T16:53:15.926Z,100646.97
2022-12-25T16:55:45.055Z,100648.16
2022-12-25T16:58:13.056Z,100640.69
2022-12-25T17:00:45.745Z,100653.22
2022-12-25T17:03:18.656Z,100652.81
2022-12-25T17:05:46.651Z,100657.81
2022-12-25T17:08:14.612Z,100661.16
2022-12-25T17:10:42.842Z,100653.59
2022-12-25T17:13:11.109Z,100663.44
2022-12-25T17:15:39.162Z,100670.31
2022-12-25T17:18:09.670Z,100679.09
2022-12-25T17:20:39.239Z,100689.50
2022-12-25T17:23:07.225Z,100681.59
2022-12-25T17:25:35.228Z,100686.38
2022-12-25T17:28:03.283Z,100688.28
2022-12-25T17:30:31.261Z,100687.84
2022-12-25T17:32:59.208Z,100683.94
2022-12-25T17:35:27.209Z,100696.25
2022-12-25T17:37:56.766Z,100693.09
2022-12-25T17:40:26.616Z,100693.09
2022-12-25T17:42:54.625Z,100698.06
2022-12-25T17:45:22.606Z,100705.78
2022-12-25T17:47:54.932Z,100708.34
2022-12-25T17:50:25.435Z,100701.41
2022-12-25T17:52:54.103Z,100702.03
2022-12-25T17:55:23.506Z,100702.69
2022-12-25T17:57:51.511Z,100693.09
2022-12-25T18:00:20.219Z,100698.50
2022-12-25T18:02:48.394Z,100683.94
2022-12-25T18:05:16.725Z,100689.16
2022-12-25T18:07:44.954Z,100685.66
2022-12-25T18:10:14.812Z,100680.50
2022-12-25T18:12:45.791Z,100691.97
2022-12-25T18:15:13.837Z,100684.28
2022-12-25T18:17:41.827Z,100686.13
2022-12-25T18:20:10.553Z,100695.13
2022-12-25T18:22:38.622Z,100697.19
2022-12-25T18:25:07.137Z,100696.94
2022-12-25T18:27:35.348Z,100700.53
2022-12-25T18:30:05.736Z,100701.81
2022-12-25T18:32:33.751Z,100700.97
2022-12-25T18:35:01.807Z,100697.47
2022-12-25T18:37:33.138Z,100694.69
2022-12-25T18:40:07.014Z,100691.59
2022-12-25T18:42:40.858Z,100695.38
2022-12-25T18:45:12.420Z,100690.13
2022-12-25T18:47:40.389Z,100694.50
2022-12-25T18:50:09.487Z,100692.41
2022-12-25T18:52:47.970Z,100682.63
2022-12-25T18:55:18.653Z,100689.72
2022-12-25T18:57:51.940Z,100683.47
2022-12-25T19:00:23.467Z,100685.56
2022-12-25T19:02:51.815Z,100685.13
2022-12-25T19:05:20.168Z,100683.06
2022-12-25T19:07:48.270Z,100686.63
2022-12-25T19:10:16.333Z,100695.38
2022-12-25T19:12:44.496Z,100698.50
2022-12-25T19:15:12.951Z,100697.22
2022-12-25T19:17:42.557Z,100696.84
2022-12-25T19:20:11.544Z,100686.44
2022-12-25T19:22:39.566Z,100694.34
2022-12-25T19:25:09.191Z,100680.19
2022-12-25T19:27:37.305Z,100686.88
2022-12-25T19:30:06.012Z,100691.91
2022-12-25T19:32:33.960Z,100697.13
2022-12-25T19:35:04.555Z,100679.78
2022-12-25T19:37:35.564Z,100683.56
2022-12-25T19:40:04.048Z,100682.91
2022-12-25T19:42:32.459Z,100688.94
2022-12-25T19:45:03.220Z,100686.88
2022-12-25T19:47:31.542Z,100682.31
2022-12-25T19:50:04.420Z,100693.56
2022-12-25T19:52:32.438Z,100700.22
2022-12-25T19:55:00.584Z,100691.47
2022-12-25T19:57:28.586Z,100689.63
2022-12-25T19:59:56.840Z,100691.72
2022-12-25T20:02:24.967Z,100696.94
2022-12-25T20:04:53.106Z,100695.50
2022-12-25T20:07:22.463Z,100704.50
2022-12-25T20:09:50.752Z,100691.19
2022-12-25T20:12:18.815Z,100695.78
2022-12-25T20:14:46.976Z,100698.69
2022-12-25T20:17:16.115Z,100692.44
2022-12-25T20:19:44.435Z,100695.34
2022-12-25T20:22:12.421Z,100702.41
2022-12-25T20:24:41.765Z,100700.38
2022-12-25T20:27:09.891Z,100694.97
2022-12-25T20:29:37.934Z,100695.78
2022-12-25T20:32:06.519Z,100694.97
2022-12-25T20:34:34.658Z,100685.38
2022-12-25T20:37:02.960Z,100688.31
2022-12-25T20:39:31.254Z,100689.19
2022-12-25T20:42:00.691Z,100682.72
2022-12-25T20:44:28.724Z,100692.91
2022-12-25T20:46:59.355Z,100685.41
2022-12-25T20:49:35.887Z,100686.47
2022-12-25T20:52:05.876Z,100680.81
2022-12-25T20:54:34.602Z,100687.50
2022-12-25T20:57:02.651Z,100688.31
2022-12-25T20:59:36.960Z,100683.09
2022-12-25T21:02:05.785Z,100687.88
2022-12-25T21:04:35.506Z,100682.66
2022-12-25T21:07:03.739Z,100689.97
2022-12-25T21:09:31.904Z,100696.84
2022-12-25T21:11:59.916Z,100692.25
2022-12-25T21:14:29.569Z,100688.72
2022-12-25T21:16:57.769Z,100682.00
2022-12-25T21:19:25.911Z,100679.09
2022-12-25T21:21:55.309Z,100677.00
2022-12-25T21:24:23.301Z,100667.81
2022-12-25T21:26:51.390Z,100671.78
2022-12-25T21:29:22.905Z,100679.50
2022-12-25T21:32:09.205Z,100675.53
2022-12-25T21:34:37.423Z,100681.13
2022-12-25T21:37:07.097Z,100662.78
2022-12-25T21:39:37.011Z,100666.97
2022-12-25T21:42:05.499Z,100671.13
2022-12-25T21:44:33.568Z,100665.28
2022-12-25T21:47:01.638Z,100657.38
2022-12-25T21:49:49.788Z,100669.22
2022-12-25T21:52:19.551Z,100659.88
2022-12-25T21:54:47.608Z,100655.72
2022-12-25T21:57:15.583Z,100664.84
2022-12-25T21:59:44.957Z,100657.56
2022-12-25T22:02:13.295Z,100658.00
2022-12-25T22:04:41.509Z,100651.94
2022-12-25T22:07:18.861Z,100641.75
2022-12-25T22:09:49.871Z,100645.28
2022-12-25T22:12:35.969Z,100640.09
2022-12-25T22:15:07.068Z,100648.63
2022-12-25T22:17:57.256Z,100652.00
2022-12-25T22:20:30.186Z,100660.75
2022-12-25T22:22:58.981Z,100661.59
2022-12-25T22:25:29.545Z,100655.78
2022-12-25T22:27:58.525Z,100653.25
2022-12-25T22:30:28.532Z,100664.94
2022-12-25T22:32:56.945Z,100670.97
2022-12-25T22:35:25.112Z,100666.19
2022-12-25T22:37:54.117Z,100669.91
2022-12-25T22:40:22.284Z,100668.69
2022-12-25T22:42:54.650Z,100670.97
2022-12-25T22:45:22.776Z,100670.34
2022-12-25T22:47:50.835Z,100664.09
2022-12-25T22:50:19.122Z,100671.16
2022-12-25T22:52:47.198Z,100672.41
2022-12-25T22:55:19.038Z,100673.25
2022-12-25T22:57:47.140Z,100674.31
2022-12-25T23:00:17.619Z,100677.88
2022-12-25T23:02:45.899Z,100679.72
2022-12-25T23:05:14.437Z,100677.41
2022-12-25T23:07:42.935Z,100679.09
2022-12-25T23:10:11.543Z,100690.38
2022-12-25T23:12:57.046Z,100683.28
2022-12-25T23:15:27.688Z,100689.53
2022-12-25T23:18:13.854Z,100692.44
2022-12-25T23:20:59.509Z,100688.88
2022-12-25T23:23:45.424Z,100695.16
2022-12-25T23:26:15.846Z,100694.13
2022-12-25T23:29:02.276Z,100692.88
2022-12-25T23:31:34.497Z,100687.88
2022-12-25T23:34:03.006Z,100694.38
2022-12-25T23:36:31.051Z,100697.47
2022-12-25T23:39:06.745Z,100693.53
2022-12-25T23:41:37.399Z,100696.66
2022-12-25T23:44:05.405Z,100691.66
2022-12-25T23:46:34.836Z,100696.44
2022-12-25T23:49:03.224Z,100694.97
2022-12-25T23:51:31.292Z,100690.81
2022-12-25T23:53:59.276Z,100679.13
2022-12-25T23:56:27.396Z,100681.22
2022-12-25T23:58:55.547Z,100680.00
